Airfield :
LOGIN :

Register | Disclaimer

   EN    FR    IT 

 










Legend :    VFR   Marginal VFR   IFR   Intensive IFR   Very Intensive IFR
Visi :
Ceiling :
>= 8 km
>= 3000ft
5 to 8 km
1000 to 3000 ft
1500m to 5 km
500 to 1000 ft
800 to 1500m
200 to 500 ft
< 800m
< 200 ft
Symbols :   Thunderstorms  Fog  Heavy snow  Heavy precipitations  Wind > 20 kt
SIGMETs :     Misc.  Thunderstorms  Icing  Turbulence  Mountain Waves  Volcanic Ashes






- Airport Elevation : 529 ft
- IATA code : CHR


LFLX - Chateauroux

CURRENT METAR :
  • 091430Z AUTO 30019G31KT 9999 -RA FEW016/// SCT039/// OVC056/// ///CB 09/05 Q1017 TEMPO 4000 -SHRA

EXPIRED METARs :
  • 091400Z AUTO 31017KT 9999 -RA FEW016/// SCT027/// BKN039/// ///CB 08/05 Q1017 TEMPO 31020G35KT 4000 -SHRA
  • 091330Z AUTO 27016KT 9999 FEW028/// SCT036/// BKN042/// ///CB 10/06 Q1016 TEMPO 31020G35KT 4000 -SHRA
  • 091300Z AUTO 28017KT 9999 FEW024/// OVC033/// ///TCU 10/06 Q1015 TEMPO 31020G35KT 2500 SHRA SCT020CB
  • 091230Z AUTO 27017KT 9999 -RA BKN027/// BKN033/// OVC040/// ///TCU 09/06 Q1015 TEMPO 31020G35KT 2500 SHRA SCT020CB
  • 091200Z AUTO 27016KT 9999 FEW022/// SCT031/// BKN046/// ///TCU 09/06 Q1015 TEMPO 31020G35KT 2500 SHRA SCT020CB

TAF TAF LFLX
Valid from the 09 at 12:00 until the 10 at 18:00 UTC


091100Z 0912/1018 29015G25KT 9999 SCT025
TEMPO 0912/0917 31020G35KT 4000 -SHRA SCT020TCU
PROB30
TEMPO 0912/0915 2500 SHRA SCT020CB
BECMG 0918/0920 31010KT CAVOK
BECMG 1001/1003 23004KT
TEMPO 1003/1010 3000 BR BKN003
PROB40
TEMPO 1004/1007 0800 FG BKN001



MET'MAP, your aeronautical weather chart ! - Copyright ORBIFLY December 2007 - Disclaimer

ORBIFLY MET'MAP TEAM :

Programming & Development : Alexandra Zaïnal
Concept & original design : Baudouin d'Aumeries
Assistance for programming : Marc-Olivier Méhu
Technical & hardware support : Manuel Goepfert

Contact : metmap@orbifly.com




SOURCES & CREDITS :

   NOAA